Time;durP1;ratioP1;P1;durP2;ratioP2;P2;SDS_P1;SDS_P2;PMS_P1;PMS_P2;Temp;Humidity;BMP_temperature;BMP_pressure;BME280_temperature;BME280_humidity;BME280_pressure;Samples;Min_cycle;Max_cycle;Signal;HPM_P1;HPM_P2
2023/12/25 00:00:24;;;;;;;6.93;1.40;;;10.90;99.90;;;;;;4975920;28;20577;-69
2023/12/25 00:02:51;;;;;;;3.40;1.42;;;10.80;99.90;;;;;;4979750;28;20629;-69
2023/12/25 00:05:19;;;;;;;4.35;1.67;;;10.90;99.90;;;;;;4964973;28;20602;-69
2023/12/25 00:07:46;;;;;;;6.22;1.00;;;10.90;99.90;;;;;;4939301;28;20216;-69
2023/12/25 00:10:13;;;;;;;6.47;1.60;;;10.90;99.90;;;;;;4977809;28;20211;-69
2023/12/25 00:12:40;;;;;;;7.10;1.63;;;10.90;99.90;;;;;;4967193;28;20210;-69
2023/12/25 00:15:09;;;;;;;3.58;1.38;;;10.90;99.90;;;;;;4970215;28;20222;-69
2023/12/25 00:17:36;;;;;;;4.57;1.30;;;11.00;99.90;;;;;;4982877;28;20241;-69
2023/12/25 00:20:03;;;;;;;6.32;1.65;;;11.00;99.90;;;;;;4967127;28;20702;-69
2023/12/25 00:22:32;;;;;;;3.92;1.58;;;11.00;99.90;;;;;;4969224;28;20277;-70
2023/12/25 00:24:58;;;;;;;3.60;1.00;;;11.00;99.90;;;;;;4965679;28;20292;-69
2023/12/25 00:27:25;;;;;;;4.13;0.93;;;11.00;99.90;;;;;;4969452;28;20576;-69
2023/12/25 00:29:52;;;;;;;8.15;1.98;;;11.00;99.90;;;;;;4975304;28;20700;-69
2023/12/25 00:32:20;;;;;;;4.57;1.17;;;11.00;99.90;;;;;;4980379;28;20194;-69
2023/12/25 00:34:46;;;;;;;5.55;1.58;;;10.90;99.90;;;;;;4979360;28;20316;-69
2023/12/25 00:37:13;;;;;;;5.70;1.40;;;10.90;99.90;;;;;;4967780;28;20221;-69
2023/12/25 00:39:42;;;;;;;6.28;1.77;;;10.90;99.90;;;;;;4943112;28;20218;-69
2023/12/25 00:42:09;;;;;;;8.23;1.70;;;10.70;99.90;;;;;;4981993;28;20210;-69
2023/12/25 00:44:36;;;;;;;10.52;1.52;;;10.80;99.90;;;;;;4965006;28;20217;-69
2023/12/25 00:47:03;;;;;;;3.90;1.30;;;11.00;99.90;;;;;;4976482;28;20712;-69
2023/12/25 00:49:29;;;;;;;6.30;1.73;;;11.00;99.90;;;;;;4978662;28;20210;-69
2023/12/25 00:51:56;;;;;;;2.58;1.20;;;11.00;99.90;;;;;;4972002;28;20226;-69
2023/12/25 00:54:23;;;;;;;7.47;1.98;;;10.10;99.90;;;;;;4982282;28;20318;-68
2023/12/25 00:56:52;;;;;;;5.65;1.70;;;11.00;99.90;;;;;;4954383;28;20200;-69
2023/12/25 00:59:18;;;;;;;6.43;1.65;;;11.10;99.90;;;;;;4973518;28;20209;-69
2023/12/25 01:01:45;;;;;;;5.45;1.45;;;11.10;99.90;;;;;;4958595;28;21472;-69
2023/12/25 01:04:12;;;;;;;7.93;1.67;;;11.10;99.90;;;;;;4980316;28;20199;-69
2023/12/25 01:06:39;;;;;;;4.28;1.55;;;11.20;99.90;;;;;;4971614;28;20750;-69
2023/12/25 01:09:06;;;;;;;8.80;2.08;;;11.20;99.90;;;;;;4981438;28;20273;-69
2023/12/25 01:11:33;;;;;;;3.35;1.30;;;11.20;99.90;;;;;;4949724;28;20701;-69
2023/12/25 01:14:01;;;;;;;6.60;1.75;;;11.10;99.90;;;;;;4973862;28;20213;-70
2023/12/25 01:16:28;;;;;;;2.65;1.55;;;11.10;99.90;;;;;;4981728;28;20553;-69
2023/12/25 01:18:55;;;;;;;4.75;1.02;;;11.20;99.90;;;;;;4984956;28;20942;-69
2023/12/25 01:21:22;;;;;;;6.03;1.65;;;11.20;99.90;;;;;;4978452;28;20957;-69
2023/12/25 01:23:48;;;;;;;5.35;1.42;;;11.20;99.90;;;;;;4978190;28;20216;-69
2023/12/25 01:26:15;;;;;;;4.18;1.50;;;11.00;99.90;;;;;;4945550;28;20413;-69
2023/12/25 01:28:42;;;;;;;3.13;1.20;;;11.20;99.90;;;;;;4971137;28;20892;-69
2023/12/25 01:31:10;;;;;;;3.13;0.95;;;11.10;99.90;;;;;;4979253;28;20310;-69
2023/12/25 01:33:37;;;;;;;5.68;1.60;;;12.10;99.90;;;;;;4982787;28;20228;-69
2023/12/25 01:36:05;;;;;;;1.77;0.88;;;11.20;99.90;;;;;;4983475;28;21261;-69
2023/12/25 01:38:31;;;;;;;3.67;1.05;;;11.10;99.90;;;;;;4973951;28;20207;-69
2023/12/25 01:40:58;;;;;;;12.65;1.42;;;11.20;99.90;;;;;;4952210;28;20203;-70
2023/12/25 01:43:25;;;;;;;4.35;1.15;;;11.20;99.90;;;;;;4964026;28;20261;-69
2023/12/25 01:45:52;;;;;;;2.03;1.17;;;11.50;99.90;;;;;;4983528;28;20226;-69
2023/12/25 01:48:24;;;;;;;10.50;1.63;;;11.20;99.90;;;;;;4976078;28;20230;-69
2023/12/25 01:50:51;;;;;;;5.18;1.50;;;11.10;99.90;;;;;;4984214;28;20195;-69
2023/12/25 01:53:18;;;;;;;3.20;1.30;;;11.20;99.90;;;;;;4982683;28;20693;-69
2023/12/25 01:55:45;;;;;;;8.75;1.77;;;11.10;99.90;;;;;;4972426;28;20579;-69
2023/12/25 01:58:12;;;;;;;7.72;1.20;;;11.60;99.90;;;;;;4945294;28;20364;-70
2023/12/25 02:00:38;;;;;;;2.08;0.98;;;11.20;99.90;;;;;;4968351;28;20218;-69
2023/12/25 02:03:06;;;;;;;6.70;1.42;;;11.20;99.90;;;;;;4978699;28;20230;-69
2023/12/25 02:05:34;;;;;;;6.10;1.42;;;11.20;99.90;;;;;;4983860;28;20229;-69
2023/12/25 02:08:03;;;;;;;5.63;1.27;;;11.20;99.90;;;;;;4977754;28;20666;-69
2023/12/25 02:10:32;;;;;;;4.78;1.40;;;11.30;99.90;;;;;;4973481;28;20203;-69
2023/12/25 02:13:02;;;;;;;5.47;1.67;;;11.30;99.90;;;;;;4947418;28;20211;-69
2023/12/25 02:15:29;;;;;;;5.55;1.80;;;11.30;99.90;;;;;;4968098;28;21456;-69
2023/12/25 02:17:56;;;;;;;3.13;1.27;;;12.20;99.90;;;;;;4977561;28;20213;-69
2023/12/25 02:20:23;;;;;;;2.25;0.95;;;11.30;99.90;;;;;;4976177;28;20565;-69
2023/12/25 02:22:52;;;;;;;6.45;1.70;;;11.30;99.90;;;;;;4978056;28;20199;-69
2023/12/25 02:25:28;;;;;;;2.78;1.27;;;11.30;99.90;;;;;;4970521;28;20249;-69
2023/12/25 02:27:56;;;;;;;6.78;1.30;;;11.00;99.90;;;;;;4957546;28;20203;-69
2023/12/25 02:30:23;;;;;;;4.55;0.85;;;11.20;99.90;;;;;;4947018;28;20211;-69
2023/12/25 02:32:50;;;;;;;5.72;1.00;;;11.30;99.90;;;;;;4977517;28;20199;-68
2023/12/25 02:35:17;;;;;;;4.57;0.98;;;11.20;99.90;;;;;;4969448;28;20242;-69
2023/12/25 02:37:44;;;;;;;2.47;0.98;;;11.30;99.90;;;;;;4978991;28;20206;-69
2023/12/25 02:40:11;;;;;;;5.70;1.10;;;12.60;99.90;;;;;;4979534;28;20214;-69
2023/12/25 02:42:38;;;;;;;3.33;1.38;;;11.20;99.90;;;;;;4972776;28;20203;-69
2023/12/25 02:45:07;;;;;;;5.38;1.35;;;11.10;99.90;;;;;;4936271;28;21111;-69
2023/12/25 02:47:34;;;;;;;8.52;1.40;;;11.10;99.90;;;;;;4974446;28;20214;-69
2023/12/25 02:50:01;;;;;;;2.55;1.48;;;11.40;99.90;;;;;;4971992;28;20210;-69
2023/12/25 02:52:28;;;;;;;4.57;1.30;;;11.40;99.90;;;;;;4978249;28;20329;-69
2023/12/25 02:54:55;;;;;;;5.20;1.42;;;11.00;99.90;;;;;;4983197;28;20282;-69
2023/12/25 02:57:22;;;;;;;5.40;1.40;;;11.10;99.90;;;;;;4969120;28;20230;-69
2023/12/25 02:59:49;;;;;;;1.58;0.95;;;11.00;99.90;;;;;;4937633;28;20253;-69
2023/12/25 03:02:17;;;;;;;3.95;1.40;;;11.00;99.90;;;;;;4978493;28;20213;-69
2023/12/25 03:04:44;;;;;;;4.30;1.15;;;10.90;99.90;;;;;;4974733;28;20684;-69
2023/12/25 03:07:11;;;;;;;7.05;1.15;;;10.90;99.90;;;;;;4979265;28;21362;-68
2023/12/25 03:09:38;;;;;;;2.95;0.82;;;10.90;99.90;;;;;;4978816;28;20253;-68
2023/12/25 03:12:05;;;;;;;3.20;0.80;;;10.90;99.90;;;;;;4982577;28;20207;-68
2023/12/25 03:14:32;;;;;;;2.95;0.80;;;10.80;99.90;;;;;;4923910;28;23605;-69
2023/12/25 03:16:59;;;;;;;8.13;1.27;;;10.80;99.90;;;;;;4983095;28;20537;-68
2023/12/25 03:19:27;;;;;;;5.63;1.52;;;11.10;99.90;;;;;;4972632;28;20195;-68
2023/12/25 03:21:54;;;;;;;4.78;1.27;;;10.80;99.90;;;;;;4975222;28;20573;-69
2023/12/25 03:24:21;;;;;;;8.27;1.60;;;10.80;99.90;;;;;;4985077;28;20660;-68
2023/12/25 03:26:49;;;;;;;2.08;1.13;;;10.80;99.90;;;;;;4980749;28;20223;-68
2023/12/25 03:29:16;;;;;;;4.50;1.27;;;11.30;99.90;;;;;;4948207;28;20206;-68
2023/12/25 03:31:43;;;;;;;5.00;1.10;;;10.70;99.90;;;;;;4961778;28;20209;-68
2023/12/25 03:34:15;;;;;;;3.83;1.17;;;10.70;99.90;;;;;;4982885;28;20226;-68
2023/12/25 03:36:43;;;;;;;3.10;1.10;;;10.60;99.90;;;;;;4969089;28;20198;-68
2023/12/25 03:39:10;;;;;;;4.05;1.30;;;10.60;99.90;;;;;;4984276;28;20206;-68
2023/12/25 03:41:37;;;;;;;3.08;1.20;;;10.50;99.90;;;;;;4979302;28;20209;-69
2023/12/25 03:44:06;;;;;;;4.63;1.13;;;10.50;99.90;;;;;;4974460;28;20211;-68
2023/12/25 03:46:33;;;;;;;1.83;1.00;;;10.60;99.90;;;;;;4936627;28;20223;-68
2023/12/25 03:49:00;;;;;;;5.82;1.33;;;10.60;99.90;;;;;;4981387;28;20203;-68
2023/12/25 03:51:27;;;;;;;5.63;1.45;;;10.30;99.90;;;;;;4965076;28;20305;-68
2023/12/25 03:53:55;;;;;;;9.20;1.95;;;10.50;99.90;;;;;;4975172;28;20226;-68
2023/12/25 03:56:24;;;;;;;4.70;1.05;;;10.50;99.90;;;;;;4972576;28;20202;-68
2023/12/25 03:58:51;;;;;;;3.25;1.50;;;10.50;99.90;;;;;;4976273;28;20857;-68
2023/12/25 04:01:18;;;;;;;4.15;1.27;;;10.40;99.90;;;;;;4936234;28;20592;-68
2023/12/25 04:03:45;;;;;;;2.30;1.20;;;10.40;99.90;;;;;;4979774;28;20752;-68
2023/12/25 04:06:22;;;;;;;3.13;1.17;;;10.40;99.90;;;;;;4960776;28;20798;-68
2023/12/25 04:08:49;;;;;;;3.70;1.23;;;10.40;99.90;;;;;;4979157;28;21161;-68
2023/12/25 04:11:20;;;;;;;5.13;1.30;;;10.40;99.90;;;;;;4980848;28;20702;-68
2023/12/25 04:13:47;;;;;;;6.60;1.88;;;10.40;99.90;;;;;;4976329;28;20211;-68
2023/12/25 04:16:20;;;;;;;4.93;1.83;;;10.40;99.90;;;;;;4949208;28;20214;-68
2023/12/25 04:18:47;;;;;;;7.90;1.67;;;10.30;99.90;;;;;;4967335;28;21068;-68
2023/12/25 04:21:25;;;;;;;3.67;1.58;;;10.30;99.90;;;;;;4973149;28;20784;-68
2023/12/25 04:23:52;;;;;;;8.23;2.22;;;10.30;99.90;;;;;;4971669;28;20206;-68
2023/12/25 04:26:21;;;;;;;7.40;1.30;;;10.40;99.90;;;;;;4980902;28;20230;-68
2023/12/25 04:28:48;;;;;;;9.82;1.40;;;10.40;99.90;;;;;;4976828;28;20289;-68
2023/12/25 04:31:15;;;;;;;9.35;1.23;;;10.40;99.90;;;;;;4951336;28;20210;-68
2023/12/25 04:33:42;;;;;;;4.45;1.30;;;10.30;99.90;;;;;;4969838;28;20222;-68
2023/12/25 04:36:11;;;;;;;3.92;1.40;;;10.30;99.90;;;;;;4974382;28;20199;-68
2023/12/25 04:38:38;;;;;;;6.63;1.30;;;10.30;99.90;;;;;;4967984;28;20207;-68
2023/12/25 04:41:05;;;;;;;6.85;1.27;;;10.30;99.90;;;;;;4979192;28;20322;-68
2023/12/25 04:43:33;;;;;;;5.13;1.63;;;11.10;99.90;;;;;;4979767;28;20216;-68
2023/12/25 04:46:02;;;;;;;4.50;1.30;;;10.20;99.90;;;;;;4981508;28;20235;-68
2023/12/25 04:48:29;;;;;;;6.85;1.63;;;10.20;99.90;;;;;;4935691;28;20234;-68
2023/12/25 04:50:57;;;;;;;9.90;2.00;;;10.20;99.90;;;;;;4978309;28;20206;-68
2023/12/25 04:53:24;;;;;;;8.98;1.58;;;10.20;99.90;;;;;;4968870;28;20235;-68
2023/12/25 04:55:51;;;;;;;9.50;1.70;;;6.00;99.90;;;;;;4975036;28;20207;-68
2023/12/25 04:58:18;;;;;;;8.23;1.48;;;10.10;99.90;;;;;;4986595;28;20214;-68
2023/12/25 05:00:46;;;;;;;5.32;1.40;;;9.90;99.90;;;;;;4982031;28;20685;-68
2023/12/25 05:03:13;;;;;;;6.30;2.08;;;10.20;99.90;;;;;;4948311;28;20216;-68
2023/12/25 05:05:40;;;;;;;9.10;1.70;;;7.20;99.90;;;;;;4965850;28;20212;-68
2023/12/25 05:08:07;;;;;;;5.45;1.50;;;10.20;99.90;;;;;;4972340;28;20226;-68
2023/12/25 05:10:34;;;;;;;8.80;1.58;;;10.20;99.90;;;;;;4976311;28;20203;-68
2023/12/25 05:13:01;;;;;;;6.07;1.40;;;10.40;99.90;;;;;;4983542;28;20567;-68
2023/12/25 05:15:29;;;;;;;3.63;0.93;;;10.10;99.90;;;;;;4986393;28;20199;-68
2023/12/25 05:17:57;;;;;;;6.57;1.30;;;10.20;99.90;;;;;;4944020;28;20211;-68
2023/12/25 05:20:24;;;;;;;9.05;1.40;;;10.20;99.90;;;;;;4962724;28;20235;-68
2023/12/25 05:22:51;;;;;;;12.38;1.67;;;;;;;;;;4980415;28;20241;-68
2023/12/25 05:25:18;;;;;;;6.72;1.70;;;10.20;99.90;;;;;;4967795;28;20207;-68
2023/12/25 05:27:45;;;;;;;11.98;1.77;;;;;;;;;;4982012;28;20230;-68
2023/12/25 05:30:13;;;;;;;6.22;1.35;;;10.20;99.90;;;;;;4978087;28;20772;-68
2023/12/25 05:32:40;;;;;;;6.35;1.20;;;10.20;99.90;;;;;;4980001;28;20203;-68
2023/12/25 05:35:08;;;;;;;6.50;1.63;;;10.10;99.90;;;;;;4931614;28;20237;-68
2023/12/25 05:37:35;;;;;;;5.47;1.92;;;10.10;99.90;;;;;;4977073;28;20206;-68
2023/12/25 05:40:04;;;;;;;7.15;1.33;;;10.10;99.90;;;;;;4957678;28;20207;-68
2023/12/25 05:42:30;;;;;;;6.30;1.27;;;10.10;99.90;;;;;;4976364;28;20316;-67
2023/12/25 05:44:57;;;;;;;5.15;1.40;;;10.00;99.90;;;;;;4977275;28;20225;-68
2023/12/25 05:47:24;;;;;;;5.35;1.92;;;10.10;99.90;;;;;;4977143;28;20242;-68
2023/12/25 05:49:53;;;;;;;5.70;1.33;;;10.00;99.90;;;;;;4943822;28;20215;-68
2023/12/25 05:52:21;;;;;;;4.82;1.30;;;10.00;99.90;;;;;;4972725;28;20227;-68
2023/12/25 05:54:48;;;;;;;3.90;1.30;;;9.90;99.90;;;;;;4972787;28;20203;-68
2023/12/25 05:57:15;;;;;;;9.88;1.67;;;9.90;99.90;;;;;;4968989;28;20203;-68
2023/12/25 05:59:42;;;;;;;7.78;1.80;;;10.00;99.90;;;;;;4980406;28;20318;-68
2023/12/25 06:02:11;;;;;;;3.80;1.48;;;9.90;99.90;;;;;;4979059;28;20203;-68
2023/12/25 06:04:37;;;;;;;4.32;1.70;;;9.90;99.90;;;;;;4946753;28;20219;-68
2023/12/25 06:07:04;;;;;;;6.57;1.45;;;9.90;99.90;;;;;;4969525;28;20233;-67
2023/12/25 06:09:33;;;;;;;5.20;1.42;;;9.90;99.90;;;;;;4968004;28;20306;-68
2023/12/25 06:12:00;;;;;;;7.13;1.70;;;9.90;99.90;;;;;;4975421;28;20209;-68
2023/12/25 06:14:27;;;;;;;6.43;1.30;;;9.90;99.90;;;;;;4978690;28;20577;-67
2023/12/25 06:16:53;;;;;;;9.02;1.52;;;9.80;99.90;;;;;;4979925;28;20210;-68
2023/12/25 06:19:21;;;;;;;8.13;1.90;;;9.90;99.90;;;;;;4953414;28;20234;-68
2023/12/25 06:21:48;;;;;;;6.22;1.83;;;9.90;99.90;;;;;;4963271;28;20202;-67
2023/12/25 06:24:15;;;;;;;9.73;1.50;;;9.90;99.90;;;;;;4987083;28;20200;-67
2023/12/25 06:26:44;;;;;;;4.22;1.20;;;10.60;99.90;;;;;;4967151;28;20229;-67
2023/12/25 06:29:11;;;;;;;8.00;1.65;;;9.40;99.90;;;;;;4971529;28;20594;-67
2023/12/25 06:31:38;;;;;;;4.18;1.42;;;9.90;99.90;;;;;;4977111;28;20210;-67
2023/12/25 06:34:05;;;;;;;5.50;1.40;;;10.00;99.90;;;;;;4980908;28;20241;-67
2023/12/25 06:36:32;;;;;;;4.55;1.08;;;9.90;99.90;;;;;;4934132;28;20207;-68
2023/12/25 06:38:58;;;;;;;8.40;2.05;;;10.00;99.90;;;;;;4984004;28;21749;-67
2023/12/25 06:41:25;;;;;;;3.08;1.20;;;9.80;99.90;;;;;;4965910;28;20703;-67
2023/12/25 06:43:54;;;;;;;5.85;1.50;;;9.50;99.90;;;;;;4974482;28;20984;-67
2023/12/25 06:46:21;;;;;;;8.23;1.33;;;;;;;;;;4977313;28;20207;-68
2023/12/25 06:48:48;;;;;;;7.28;1.30;;;9.20;99.90;;;;;;4970669;28;20204;-67
2023/12/25 06:51:15;;;;;;;5.00;0.90;;;8.80;99.90;;;;;;4944420;28;20207;-67
2023/12/25 06:53:42;;;;;;;4.63;1.20;;;8.70;99.90;;;;;;4960734;28;20225;-67
2023/12/25 06:56:10;;;;;;;6.53;1.60;;;8.60;99.90;;;;;;4986592;28;20195;-68
2023/12/25 06:58:39;;;;;;;1.27;0.80;;;8.70;99.90;;;;;;4963543;28;20210;-67
2023/12/25 07:01:07;;;;;;;2.47;0.90;;;8.60;99.90;;;;;;4980308;28;20234;-67
2023/12/25 07:03:34;;;;;;;3.20;1.23;;;8.50;99.90;;;;;;4969136;28;20642;-67
2023/12/25 07:06:01;;;;;;;2.07;1.07;;;8.50;99.90;;;;;;4981441;28;20210;-67
2023/12/25 07:08:28;;;;;;;4.97;1.30;;;8.50;99.90;;;;;;4930462;28;21370;-68
2023/12/25 07:10:55;;;;;;;6.95;1.25;;;8.50;99.90;;;;;;4972137;28;20240;-67
2023/12/25 07:13:22;;;;;;;9.90;1.70;;;8.50;99.90;;;;;;4972096;28;20209;-67
2023/12/25 07:15:48;;;;;;;4.17;1.33;;;8.40;99.90;;;;;;4971834;28;20200;-67
2023/12/25 07:18:17;;;;;;;3.97;1.30;;;8.40;99.90;;;;;;4978992;28;20207;-68
2023/12/25 07:20:44;;;;;;;5.23;1.63;;;8.50;99.90;;;;;;4974607;28;20203;-68
2023/12/25 07:23:13;;;;;;;6.97;1.57;;;8.60;99.90;;;;;;4944842;28;20231;-68
2023/12/25 07:25:40;;;;;;;5.22;1.40;;;9.70;99.90;;;;;;4963410;28;20871;-68
2023/12/25 07:28:07;;;;;;;6.35;1.55;;;8.50;99.90;;;;;;4974612;28;20632;-68
2023/12/25 07:30:33;;;;;;;14.63;2.92;;;8.50;99.90;;;;;;4971334;28;20243;-68
2023/12/25 07:33:00;;;;;;;10.25;1.83;;;8.60;99.90;;;;;;4978897;28;20211;-69
2023/12/25 07:35:28;;;;;;;9.05;1.67;;;8.70;99.90;;;;;;4970188;28;20204;-68
2023/12/25 07:37:55;;;;;;;5.73;1.30;;;8.60;99.90;;;;;;4943153;28;20208;-68
2023/12/25 07:40:23;;;;;;;7.70;1.83;;;8.70;99.90;;;;;;4959310;28;20206;-68
2023/12/25 07:42:50;;;;;;;9.07;2.38;;;;;;;;;;4973885;28;20321;-68
2023/12/25 07:45:17;;;;;;;6.38;2.25;;;8.50;99.90;;;;;;4962645;28;20238;-68
2023/12/25 07:47:43;;;;;;;4.32;1.45;;;8.60;99.90;;;;;;4970471;28;20798;-68
2023/12/25 07:50:11;;;;;;;7.70;1.80;;;8.80;99.90;;;;;;4972708;28;20972;-68
2023/12/25 07:52:39;;;;;;;10.48;1.58;;;9.00;99.90;;;;;;4938263;28;20250;-68
2023/12/25 07:55:06;;;;;;;8.18;1.40;;;8.80;99.90;;;;;;4962413;28;20302;-68
2023/12/25 07:57:33;;;;;;;7.00;1.23;;;8.90;99.90;;;;;;4966795;28;20210;-68
2023/12/25 08:00:00;;;;;;;7.82;1.63;;;8.90;99.90;;;;;;4971092;28;20209;-68
2023/12/25 08:02:27;;;;;;;6.18;1.20;;;8.90;99.90;;;;;;4967546;28;20290;-68
2023/12/25 08:04:54;;;;;;;9.50;2.10;;;8.60;99.90;;;;;;4973864;28;20205;-68
2023/12/25 08:07:21;;;;;;;5.70;1.58;;;8.90;99.90;;;;;;4980860;28;20231;-68
2023/12/25 08:09:49;;;;;;;11.43;1.48;;;8.80;99.90;;;;;;4934868;28;20207;-68
2023/12/25 08:12:16;;;;;;;8.20;1.75;;;8.90;99.90;;;;;;4963300;28;20211;-68
2023/12/25 08:14:43;;;;;;;10.82;2.20;;;8.80;99.90;;;;;;4965285;28;20760;-67
2023/12/25 08:17:10;;;;;;;13.25;2.00;;;8.80;99.90;;;;;;4975367;28;20203;-68
2023/12/25 08:19:36;;;;;;;7.15;1.38;;;8.80;99.90;;;;;;4973786;28;20203;-67
2023/12/25 08:22:04;;;;;;;8.50;1.58;;;8.90;99.90;;;;;;4972389;28;20297;-67
2023/12/25 08:24:31;;;;;;;9.23;2.00;;;8.90;99.90;;;;;;4945556;28;20341;-68
2023/12/25 08:26:59;;;;;;;11.63;2.20;;;8.80;99.90;;;;;;4977574;28;20238;-68
2023/12/25 08:29:26;;;;;;;6.00;1.55;;;;;;;;;;4963100;28;20209;-68
2023/12/25 08:31:53;;;;;;;12.27;1.63;;;8.80;99.90;;;;;;4970678;28;20201;-68
2023/12/25 08:34:19;;;;;;;7.28;2.08;;;8.90;99.90;;;;;;4979213;28;20234;-68
2023/12/25 08:36:46;;;;;;;10.90;1.98;;;8.90;99.90;;;;;;4966493;28;20208;-68
2023/12/25 08:39:13;;;;;;;10.50;1.85;;;9.00;99.90;;;;;;4942810;28;21905;-68
2023/12/25 08:41:40;;;;;;;6.70;1.98;;;9.00;99.90;;;;;;4976715;28;20207;-68
2023/12/25 08:44:09;;;;;;;12.52;2.08;;;9.10;99.90;;;;;;4963419;28;20892;-68
2023/12/25 08:46:36;;;;;;;8.70;2.22;;;9.10;99.90;;;;;;4975909;28;20212;-68
2023/12/25 08:49:03;;;;;;;8.27;2.15;;;9.10;99.90;;;;;;4970144;28;20235;-68
2023/12/25 08:51:30;;;;;;;16.15;2.15;;;9.10;99.90;;;;;;4967333;28;20685;-68
2023/12/25 08:53:56;;;;;;;8.93;1.60;;;9.10;99.90;;;;;;4982912;28;20206;-68
2023/12/25 08:56:24;;;;;;;5.57;1.65;;;9.20;99.90;;;;;;4930764;28;20584;-68
2023/12/25 08:58:50;;;;;;;6.95;1.27;;;9.10;99.90;;;;;;4971221;28;20760;-68
2023/12/25 09:01:19;;;;;;;9.00;2.20;;;9.20;99.90;;;;;;4970490;28;20569;-68
2023/12/25 09:03:45;;;;;;;6.63;1.77;;;9.20;99.90;;;;;;4973742;28;20319;-68
2023/12/25 09:06:12;;;;;;;5.40;1.42;;;9.20;99.90;;;;;;4971339;28;20314;-68
2023/12/25 09:08:40;;;;;;;3.38;1.23;;;9.00;99.90;;;;;;4976075;28;21230;-68
2023/12/25 09:11:08;;;;;;;9.27;1.90;;;9.10;99.90;;;;;;4943673;28;20578;-68
2023/12/25 09:13:35;;;;;;;3.50;1.23;;;9.10;99.90;;;;;;4977135;28;20199;-68
2023/12/25 09:16:02;;;;;;;4.07;1.05;;;9.10;99.90;;;;;;4967603;28;20313;-68
2023/12/25 09:18:31;;;;;;;2.42;1.02;;;9.00;99.90;;;;;;4960701;28;20393;-68
2023/12/25 09:20:58;;;;;;;5.60;1.30;;;9.00;99.90;;;;;;4976665;28;20669;-67
2023/12/25 09:23:25;;;;;;;6.10;1.23;;;9.00;99.90;;;;;;4975901;28;20571;-67
2023/12/25 09:25:51;;;;;;;4.10;1.08;;;9.00;99.90;;;;;;4969288;28;20207;-67
2023/12/25 09:28:18;;;;;;;6.03;1.25;;;9.00;99.90;;;;;;4940774;28;20233;-67
2023/12/25 09:30:45;;;;;;;3.72;1.13;;;9.00;99.90;;;;;;4971657;28;20301;-68
2023/12/25 09:33:12;;;;;;;2.03;1.20;;;9.00;99.90;;;;;;4962590;28;20816;-68
2023/12/25 09:35:41;;;;;;;6.18;1.13;;;9.00;99.90;;;;;;4976425;28;20203;-68
2023/12/25 09:38:08;;;;;;;6.90;1.55;;;9.00;99.90;;;;;;4967497;28;20206;-68
2023/12/25 09:40:35;;;;;;;6.22;1.17;;;9.40;99.90;;;;;;4974512;28;20754;-68
2023/12/25 09:43:02;;;;;;;6.72;1.05;;;9.00;99.90;;;;;;4951632;28;20215;-67
2023/12/25 09:45:34;;;;;;;7.93;1.40;;;8.70;99.90;;;;;;4974395;28;20211;-67
2023/12/25 09:48:00;;;;;;;9.35;1.50;;;9.00;99.90;;;;;;4952593;28;20975;-67
2023/12/25 09:50:27;;;;;;;1.77;0.80;;;9.00;99.90;;;;;;4978015;28;20317;-68
2023/12/25 09:52:56;;;;;;;5.43;1.85;;;9.00;99.90;;;;;;4975965;28;20229;-68
2023/12/25 09:55:23;;;;;;;5.45;1.30;;;;;;;;;;4964267;28;20223;-68
2023/12/25 09:57:52;;;;;;;3.95;1.30;;;9.00;99.90;;;;;;4939133;28;20277;-68
2023/12/25 10:00:21;;;;;;;7.20;1.55;;;9.10;99.90;;;;;;4973085;28;20207;-68
2023/12/25 10:02:50;;;;;;;4.95;1.30;;;9.10;99.90;;;;;;4961206;28;21749;-68
2023/12/25 10:05:18;;;;;;;6.55;1.10;;;9.00;99.90;;;;;;4968835;28;20211;-67
2023/12/25 10:07:45;;;;;;;4.25;1.42;;;9.10;99.90;;;;;;4970699;28;20226;-68
2023/12/25 10:10:14;;;;;;;8.02;1.50;;;9.70;99.90;;;;;;4960282;28;20641;-68
2023/12/25 10:12:45;;;;;;;6.80;1.48;;;9.10;99.90;;;;;;4932683;28;21546;-68
2023/12/25 10:15:13;;;;;;;5.93;1.05;;;9.10;99.90;;;;;;4978454;28;20241;-68
2023/12/25 10:17:40;;;;;;;5.78;1.38;;;;;;;;;;4970262;28;20232;-67
2023/12/25 10:20:08;;;;;;;5.40;1.70;;;9.20;99.90;;;;;;4973835;28;20226;-68
2023/12/25 10:22:38;;;;;;;4.30;1.45;;;9.20;99.90;;;;;;4976660;28;20981;-68
2023/12/25 10:25:09;;;;;;;13.60;2.25;;;9.00;99.90;;;;;;4973959;28;20572;-68
2023/12/25 10:27:39;;;;;;;7.28;1.40;;;9.10;99.90;;;;;;4965549;28;20715;-68
2023/12/25 10:30:16;;;;;;;5.35;1.30;;;9.10;99.90;;;;;;4935706;28;20914;-68
2023/12/25 10:32:42;;;;;;;12.02;1.80;;;9.00;99.90;;;;;;4968875;28;20203;-68
2023/12/25 10:35:14;;;;;;;10.05;1.95;;;9.00;99.90;;;;;;4967760;28;20264;-67
2023/12/25 10:37:43;;;;;;;5.78;1.27;;;9.00;99.90;;;;;;4968162;28;20199;-68
2023/12/25 10:40:20;;;;;;;13.00;2.03;;;9.10;99.90;;;;;;4964783;28;20226;-67
2023/12/25 10:42:50;;;;;;;8.63;2.38;;;9.10;99.90;;;;;;4970425;28;20206;-67
2023/12/25 10:45:21;;;;;;;9.30;2.17;;;9.10;99.90;;;;;;4921250;28;20596;-68
2023/12/25 10:47:51;;;;;;;9.75;2.00;;;9.10;99.90;;;;;;4970383;28;21450;-68
2023/12/25 10:50:20;;;;;;;8.38;2.08;;;9.30;99.90;;;;;;4950326;28;20234;-68
2023/12/25 10:52:49;;;;;;;10.10;1.75;;;9.10;99.90;;;;;;4967540;28;20897;-67
2023/12/25 10:55:20;;;;;;;6.55;1.77;;;9.00;99.90;;;;;;4955429;28;21114;-68
2023/12/25 10:57:49;;;;;;;5.95;1.42;;;9.00;99.90;;;;;;4970489;28;20229;-67
2023/12/25 11:00:18;;;;;;;8.35;1.90;;;9.00;99.90;;;;;;4928459;28;20223;-68
2023/12/25 11:02:46;;;;;;;2.90;1.23;;;9.00;99.90;;;;;;4974509;28;20206;-68
2023/12/25 11:05:13;;;;;;;11.65;1.83;;;9.00;99.90;;;;;;4952825;28;20227;-68
2023/12/25 11:07:41;;;;;;;11.25;1.80;;;9.00;99.90;;;;;;4964902;28;20206;-68
2023/12/25 11:10:10;;;;;;;10.68;1.90;;;9.00;99.90;;;;;;4970229;28;20238;-67
2023/12/25 11:12:38;;;;;;;5.47;1.95;;;9.00;99.90;;;;;;4965579;28;20209;-67
2023/12/25 11:15:07;;;;;;;12.60;2.33;;;9.00;99.90;;;;;;4946235;28;20215;-67
2023/12/25 11:17:34;;;;;;;11.57;2.08;;;8.90;99.90;;;;;;4958320;28;20730;-67
2023/12/25 11:20:04;;;;;;;9.13;1.73;;;9.10;99.90;;;;;;4965116;28;20222;-67
2023/12/25 11:22:36;;;;;;;9.02;2.47;;;9.10;99.90;;;;;;4965729;28;20257;-67
2023/12/25 11:25:04;;;;;;;10.68;1.42;;;9.10;99.90;;;;;;4958764;28;20202;-67
2023/12/25 11:27:32;;;;;;;10.70;2.28;;;9.10;99.90;;;;;;4950974;28;20225;-67
2023/12/25 11:30:04;;;;;;;7.72;2.00;;;9.20;99.90;;;;;;4946963;28;20222;-67
2023/12/25 11:32:32;;;;;;;9.18;1.60;;;9.20;99.90;;;;;;4966999;28;20213;-67
2023/12/25 11:34:59;;;;;;;10.00;2.00;;;9.20;99.90;;;;;;4957180;28;20890;-68
2023/12/25 11:37:26;;;;;;;13.45;2.22;;;9.20;99.90;;;;;;4937766;28;20203;-68
2023/12/25 11:39:59;;;;;;;13.02;3.13;;;9.50;99.90;;;;;;4970793;28;20199;-68
2023/12/25 11:42:27;;;;;;;17.63;4.30;;;9.00;99.90;;;;;;4956074;28;22957;-68
2023/12/25 11:44:56;;;;;;;17.90;3.05;;;9.20;99.90;;;;;;4973527;28;20882;-68
2023/12/25 11:47:28;;;;;;;10.88;3.30;;;9.20;99.90;;;;;;4935085;28;20216;-68
2023/12/25 11:49:57;;;;;;;13.23;2.80;;;9.20;99.90;;;;;;4962404;28;20265;-68
2023/12/25 11:52:46;;;;;;;18.08;3.28;;;9.20;99.90;;;;;;4967191;28;20202;-68
2023/12/25 11:55:15;;;;;;;6.45;1.80;;;9.20;99.90;;;;;;4952287;28;20914;-68
2023/12/25 11:57:43;;;;;;;11.48;2.28;;;9.10;99.90;;;;;;4944846;28;20971;-67
2023/12/25 12:00:17;;;;;;;11.23;2.17;;;9.20;99.90;;;;;;4964896;28;20210;-67
2023/12/25 12:02:44;;;;;;;4.60;1.70;;;9.20;99.90;;;;;;4931685;28;20210;-68
2023/12/25 12:05:12;;;;;;;8.45;1.35;;;9.20;99.90;;;;;;4960981;28;20228;-68
2023/12/25 12:07:39;;;;;;;12.32;2.00;;;9.30;99.90;;;;;;4942664;28;20229;-68
2023/12/25 12:10:08;;;;;;;8.30;1.90;;;9.30;99.90;;;;;;4960840;28;20606;-68
2023/12/25 12:12:35;;;;;;;11.20;2.25;;;9.40;99.90;;;;;;4956884;28;20204;-68
2023/12/25 12:15:03;;;;;;;9.70;1.85;;;9.30;99.90;;;;;;4959396;28;20223;-67
2023/12/25 12:17:30;;;;;;;6.75;1.77;;;9.40;99.90;;;;;;4933498;28;20265;-68
2023/12/25 12:19:57;;;;;;;10.50;1.95;;;9.40;99.90;;;;;;4957121;28;20229;-67
2023/12/25 12:22:26;;;;;;;8.02;1.95;;;9.40;99.90;;;;;;4960073;28;20957;-67
2023/12/25 12:24:53;;;;;;;9.82;1.70;;;9.30;99.90;;;;;;4945601;28;20692;-68
2023/12/25 12:27:21;;;;;;;5.18;1.80;;;9.40;99.90;;;;;;4968770;28;20203;-68
2023/12/25 12:29:49;;;;;;;9.38;1.88;;;9.40;99.90;;;;;;4965540;28;20223;-68
2023/12/25 12:32:16;;;;;;;11.73;1.90;;;8.10;99.90;;;;;;4928019;28;20712;-68
2023/12/25 12:34:43;;;;;;;11.15;2.13;;;9.40;99.90;;;;;;4956363;28;20626;-68
2023/12/25 12:37:11;;;;;;;6.10;1.40;;;9.40;99.90;;;;;;4959561;28;20229;-68
2023/12/25 12:39:39;;;;;;;9.27;1.83;;;9.40;99.90;;;;;;4955426;28;20217;-68
2023/12/25 12:42:11;;;;;;;10.05;2.22;;;9.40;99.90;;;;;;4967346;28;20202;-68
2023/12/25 12:44:38;;;;;;;7.53;1.67;;;9.40;99.90;;;;;;4951494;28;20203;-68
2023/12/25 12:47:07;;;;;;;7.85;2.20;;;9.40;99.90;;;;;;4927637;28;20218;-68
2023/12/25 12:49:35;;;;;;;9.10;2.05;;;9.40;99.90;;;;;;4955549;28;20354;-69
2023/12/25 12:52:01;;;;;;;8.73;1.75;;;9.40;99.90;;;;;;4966145;28;20203;-69
2023/12/25 12:54:28;;;;;;;11.48;1.75;;;9.40;99.90;;;;;;4947427;28;20317;-67